Nacala, Nacala Airport (FQNC)

NameNacala Airport
CityNacala
CountryMozambique
ICAOFQNC
IATAMNC
Altitude125 m
CoordinatesGoogle Map
Live Air TrafficLiveATC.net
METARFQNC 180700Z 36007KT 9999 SCT020 BKN100 29/25 Q1008
2020-01-18 07:00:00 Wind: North (360°) 3.6 m/s - Visibility: > 10000 m - Temperature: 29 °C - Dew point: 25 °C - Humidity: 79% - Pressure: 1008 hPa

Sorry, no flights used the airport in this database.